Terminal Aerodrome Forecast
Issued by NWS North Platte, NE

Home | Current Version | Previous Version | Text Only | Print | Product List | Glossary On
Versions: 1 2 3 4 5 6 7 8 9 10 11 12 13 14 15 16 17 18 19 20 21 22 23 24 25 26
866
FTUS43 KLBF 131601 AAC
TAFLBF
TAF AMD
KLBF 131601Z 1316/1412 17013G19KT 6SM -FZDZ BR OVC008
     FM131800 18013G20KT P6SM OVC015
      TEMPO 1318/1320 18013G20KT 6SM -FZDZ BR OVC010
     FM140300 17009KT P6SM BKN035
     FM140900 29012KT P6SM FEW050 SCT250=

USA.gov is the U.S. government's official web portal to all federal, state and local government web resources and services.